Time;durP1;ratioP1;P1;durP2;ratioP2;P2;SDS_P1;SDS_P2;PMS_P1;PMS_P2;Temp;Humidity;BMP_temperature;BMP_pressure;BME280_temperature;BME280_humidity;BME280_pressure;Samples;Min_cycle;Max_cycle;Signal;HPM_P1;HPM_P2
2023/01/24 00:01:37;;;;;;;;;;;0.40;99.90;;;;;;5014817;28;20020;-81
2023/01/24 00:04:03;;;;;;;;;;;0.50;99.60;;;;;;5015476;28;19913;-80
2023/01/24 00:06:28;;;;;;;;;;;0.50;99.50;;;;;;5009961;28;19909;-80
2023/01/24 00:08:54;;;;;;;;;;;0.40;99.70;;;;;;5010049;28;19944;-81
2023/01/24 00:11:19;;;;;;;;;;;0.30;99.90;;;;;;5014242;28;19909;-81
2023/01/24 00:13:45;;;;;;;;;;;0.20;99.90;;;;;;5012821;28;19931;-81
2023/01/24 00:16:13;;;;;;;;;;;0.10;99.90;;;;;;5005686;28;19952;-81
2023/01/24 00:18:39;;;;;;;;;;;0.00;99.90;;;;;;5014808;28;20004;-81
2023/01/24 00:21:05;;;;;;;;;;;-0.10;99.90;;;;;;5019260;28;19940;-81
2023/01/24 00:23:30;;;;;;;;;;;-0.20;99.90;;;;;;5015419;28;19956;-81
2023/01/24 00:25:56;;;;;;;;;;;-0.20;99.90;;;;;;5008150;28;19916;-80
2023/01/24 00:28:21;;;;;;;;;;;-0.20;99.90;;;;;;5018338;28;19920;-81
2023/01/24 00:30:47;;;;;;;;;;;-0.20;99.90;;;;;;5014075;28;19906;-81
2023/01/24 00:33:12;;;;;;;;;;;-0.30;99.90;;;;;;4987160;28;19982;-81
2023/01/24 00:35:38;;;;;;;;;;;-0.30;99.90;;;;;;5013744;28;20016;-80
2023/01/24 00:38:04;;;;;;;;;;;-0.40;99.90;;;;;;5014142;28;19944;-82
2023/01/24 00:40:29;;;;;;;;;;;-0.40;99.90;;;;;;5017185;28;19920;-81
2023/01/24 00:42:55;;;;;;;;;;;-0.40;99.90;;;;;;5014813;28;20551;-81
2023/01/24 00:45:20;;;;;;;;;;;-0.50;99.90;;;;;;5011551;28;19917;-80
2023/01/24 00:47:46;;;;;;;;;;;-0.50;99.90;;;;;;5008739;28;19909;-80
2023/01/24 00:50:11;;;;;;;;;;;-0.60;99.90;;;;;;5008830;28;19913;-81
2023/01/24 00:52:37;;;;;;;;;;;-0.60;99.90;;;;;;5006999;28;20008;-81
2023/01/24 00:55:03;;;;;;;;;;;-0.50;99.90;;;;;;5015953;28;19913;-80
2023/01/24 00:57:28;;;;;;;;;;;-0.50;99.90;;;;;;4995845;28;19978;-81
2023/01/24 00:59:54;;;;;;;;;;;-0.60;99.90;;;;;;5008698;28;19925;-81
2023/01/24 01:02:19;;;;;;;;;;;-0.60;99.90;;;;;;5007749;28;19909;-81
2023/01/24 01:04:45;;;;;;;;;;;-0.70;99.90;;;;;;5010368;28;19931;-82
2023/01/24 01:07:11;;;;;;;;;;;-0.80;99.90;;;;;;5012651;28;19916;-80
2023/01/24 01:09:36;;;;;;;;;;;-0.70;99.90;;;;;;5012008;28;19909;-80
2023/01/24 01:12:02;;;;;;;;;;;-0.70;99.90;;;;;;5016047;28;20055;-81
2023/01/24 01:14:28;;;;;;;;;;;-0.60;99.90;;;;;;5017529;28;19995;-82
2023/01/24 01:16:54;;;;;;;;;;;-0.70;99.90;;;;;;5018117;28;19916;-82
2023/01/24 01:19:19;;;;;;;;;;;-0.70;99.90;;;;;;5010774;28;20006;-82
2023/01/24 01:21:45;;;;;;;;;;;-0.70;99.90;;;;;;5019143;28;19913;-82
2023/01/24 01:24:10;;;;;;;;;;;-0.80;99.90;;;;;;5018958;28;19963;-82
2023/01/24 01:26:36;;;;;;;;;;;-0.90;99.90;;;;;;5020451;28;20011;-80
2023/01/24 01:29:02;;;;;;;;;;;-0.90;99.90;;;;;;5023060;28;19933;-82
2023/01/24 01:31:27;;;;;;;;;;;-0.90;99.90;;;;;;5021380;28;19912;-84
2023/01/24 01:33:53;;;;;;;;;;;-1.00;99.90;;;;;;5013421;28;19997;-83
2023/01/24 01:36:18;;;;;;;;;;;-1.00;99.90;;;;;;5009469;28;19920;-82
2023/01/24 01:38:44;;;;;;;;;;;-1.00;99.90;;;;;;5006203;28;19916;-82
2023/01/24 01:41:13;;;;;;;;;;;-0.90;99.90;;;;;;5010050;28;19909;-81
2023/01/24 01:44:37;;;;;;;;;;;-1.00;99.90;;;;;;5008320;28;19909;-82
2023/01/24 01:46:25;;;;;;;;;;;-0.90;99.90;;;;;;5021231;28;19909;-83
2023/01/24 01:48:52;;;;;;;;;;;-0.80;99.90;;;;;;5013227;28;19909;-82
2023/01/24 01:51:30;;;;;;;;;;;-0.80;99.90;;;;;;5011416;28;20357;-81
2023/01/24 01:54:08;;;;;;;;;;;-0.80;99.90;;;;;;5017330;28;19955;-82
2023/01/24 01:56:47;;;;;;;;;;;-0.80;99.90;;;;;;5013280;28;19960;-83
2023/01/24 01:59:20;;;;;;;;;;;-0.80;99.90;;;;;;5009325;28;19926;-83
2023/01/24 02:01:48;;;;;;;;;;;-0.90;99.90;;;;;;5015968;28;19913;-83
2023/01/24 02:04:19;;;;;;;;;;;-0.90;99.90;;;;;;5010466;28;20747;-83
2023/01/24 02:06:56;;;;;;;;;;;-1.00;99.90;;;;;;5012539;28;19909;-83
2023/01/24 02:09:23;;;;;;;;;;;-1.10;99.90;;;;;;5011552;28;19909;-85
2023/01/24 02:11:51;;;;;;;;;;;-1.10;99.90;;;;;;5012690;28;19915;-84
2023/01/24 02:17:01;;;;;;;;;;;-1.10;99.90;;;;;;5009885;28;20567;-80
2023/01/24 02:19:50;;;;;;;;;;;-1.10;99.90;;;;;;5014980;28;19909;-81
2023/01/24 02:22:25;;;;;;;;;;;-1.20;99.90;;;;;;5004673;28;20462;-80
2023/01/24 02:25:09;;;;;;;;;;;-1.30;99.90;;;;;;5014188;28;19910;-81
2023/01/24 02:27:35;;;;;;;;;;;-1.30;99.90;;;;;;5016967;28;19916;-81
2023/01/24 02:30:00;;;;;;;;;;;-1.20;99.90;;;;;;5018838;28;19924;-79
2023/01/24 02:32:26;;;;;;;;;;;-1.20;99.90;;;;;;5021973;28;20004;-80
2023/01/24 02:34:52;;;;;;;;;;;-1.20;99.90;;;;;;5021626;28;20400;-80
2023/01/24 02:37:18;;;;;;;;;;;-1.20;99.90;;;;;;5019224;28;19913;-80
2023/01/24 02:40:05;;;;;;;;;;;-1.30;99.90;;;;;;5017996;28;20296;-80
2023/01/24 02:42:33;;;;;;;;;;;-1.20;99.90;;;;;;5016159;28;19913;-79
2023/01/24 02:45:10;;;;;;;;;;;-1.10;99.90;;;;;;5016123;28;19928;-80
2023/01/24 02:47:40;;;;;;;;;;;-1.20;99.90;;;;;;5014017;28;20661;-79
2023/01/24 02:50:08;;;;;;;;;;;-1.10;99.90;;;;;;5012944;28;20044;-79
2023/01/24 02:55:18;;;;;;;;;;;-1.20;99.90;;;;;;5012749;28;19924;-79
2023/01/24 03:00:28;;;;;;;;;;;-1.20;99.90;;;;;;5015131;28;19928;-80
2023/01/24 03:02:54;;;;;;;;;;;-1.20;99.90;;;;;;5017276;28;20252;-80
2023/01/24 03:05:19;;;;;;;;;;;-1.20;99.90;;;;;;5020231;28;19913;-79
2023/01/24 03:07:45;;;;;;;;;;;-1.20;99.90;;;;;;5014441;28;19918;-79
2023/01/24 03:10:12;;;;;;;;;;;-1.20;99.90;;;;;;5009644;28;19914;-80
2023/01/24 03:34:48;;;;;;;;;;;-1.30;99.90;;;;;;5017803;28;20374;-80
2023/01/24 03:37:15;;;;;;;;;;;-1.30;99.90;;;;;;5010771;28;20019;-80
2023/01/24 03:39:59;;;;;;;;;;;-1.40;99.90;;;;;;5010271;28;19963;-79
2023/01/24 03:42:26;;;;;;;;;;;-1.50;99.90;;;;;;5005798;28;19916;-79
2023/01/24 03:44:52;;;;;;;;;;;-1.50;99.90;;;;;;5009030;28;19916;-79
2023/01/24 03:47:17;;;;;;;;;;;-1.60;99.90;;;;;;5006703;28;19909;-80
2023/01/24 03:52:27;;;;;;;;;;;-1.60;99.90;;;;;;5005527;28;19912;-79
2023/01/24 03:54:53;;;;;;;;;;;-1.50;99.90;;;;;;5010234;28;19913;-80
2023/01/24 03:57:19;;;;;;;;;;;-1.50;99.90;;;;;;5015801;28;19913;-80
2023/01/24 03:59:44;;;;;;;;;;;-1.50;99.90;;;;;;5012089;28;19928;-80
2023/01/24 04:02:10;;;;;;;;;;;-1.50;99.90;;;;;;5015349;28;19916;-80
2023/01/24 04:07:20;;;;;;;;;;;-1.50;99.90;;;;;;5014061;28;19959;-80
2023/01/24 04:09:45;;;;;;;;;;;-1.50;99.90;;;;;;5019181;28;19913;-81
2023/01/24 04:12:11;;;;;;;;;;;-1.60;99.90;;;;;;5016287;28;19959;-80
2023/01/24 04:14:36;;;;;;;;;;;-1.70;99.90;;;;;;5013107;28;19975;-80
2023/01/24 04:17:02;;;;;;;;;;;-1.70;99.90;;;;;;5005609;28;19913;-80
2023/01/24 04:19:28;;;;;;;;;;;-1.70;99.90;;;;;;5012283;28;20730;-80
2023/01/24 04:21:57;;;;;;;;;;;-1.90;99.90;;;;;;5012230;28;19913;-79
2023/01/24 04:24:22;;;;;;;;;;;-1.90;99.90;;;;;;5015583;28;19924;-80
2023/01/24 04:26:48;;;;;;;;;;;-1.80;99.90;;;;;;5014980;28;19913;-80
2023/01/24 04:29:14;;;;;;;;;;;-1.80;99.90;;;;;;5014950;28;19919;-80
2023/01/24 04:31:39;;;;;;;;;;;-1.80;99.90;;;;;;5016144;28;19961;-81
2023/01/24 04:34:05;;;;;;;;;;;-1.80;99.90;;;;;;5019605;28;20330;-80
2023/01/24 04:36:30;;;;;;;;;;;-1.80;99.90;;;;;;5007942;28;19913;-81
2023/01/24 04:38:56;;;;;;;;;;;-1.90;99.90;;;;;;5004772;28;19917;-81
2023/01/24 04:41:22;;;;;;;;;;;-1.90;99.90;;;;;;5006597;28;19987;-82
2023/01/24 04:43:47;;;;;;;;;;;-2.00;99.90;;;;;;5003708;28;19917;-82
2023/01/24 04:46:13;;;;;;;;;;;-2.00;99.90;;;;;;5006675;28;19909;-81
2023/01/24 04:48:38;;;;;;;;;;;-2.00;99.90;;;;;;5008234;28;19909;-83
2023/01/24 04:51:04;;;;;;;;;;;-2.00;99.90;;;;;;5014580;28;19959;-82
2023/01/24 04:53:30;;;;;;;;;;;-2.00;99.90;;;;;;5012540;28;19917;-81
2023/01/24 04:56:02;;;;;;;;;;;-2.00;99.90;;;;;;5015292;28;19913;-82
2023/01/24 04:58:27;;;;;;;;;;;-2.00;99.90;;;;;;5011442;28;19909;-82
2023/01/24 05:00:53;;;;;;;;;;;-2.00;99.90;;;;;;5022414;28;19909;-81
2023/01/24 05:03:19;;;;;;;;;;;-2.00;99.90;;;;;;5013490;28;20496;-81
2023/01/24 05:05:48;;;;;;;;;;;-1.90;99.90;;;;;;5013089;28;19909;-81
2023/01/24 05:08:14;;;;;;;;;;;-1.90;99.90;;;;;;5006814;28;19909;-81
2023/01/24 05:10:39;;;;;;;;;;;-1.90;99.90;;;;;;5017914;28;19916;-81
2023/01/24 05:13:05;;;;;;;;;;;-1.90;99.90;;;;;;5013697;28;20432;-81
2023/01/24 05:15:30;;;;;;;;;;;-1.90;99.90;;;;;;5007403;28;19952;-83
2023/01/24 05:17:56;;;;;;;;;;;-2.00;99.90;;;;;;5019634;28;20020;-81
2023/01/24 05:20:21;;;;;;;;;;;-2.10;99.90;;;;;;5020129;28;20011;-80
2023/01/24 05:22:48;;;;;;;;;;;-2.10;99.90;;;;;;5009105;28;20059;-80
2023/01/24 05:25:15;;;;;;;;;;;-2.20;99.90;;;;;;5014586;28;19920;-80
2023/01/24 05:27:41;;;;;;;;;;;-2.30;99.90;;;;;;5020371;28;19909;-80
2023/01/24 05:30:07;;;;;;;;;;;-2.30;99.90;;;;;;5009118;28;20012;-80
2023/01/24 05:32:32;;;;;;;;;;;-2.40;99.90;;;;;;5018874;28;19921;-81
2023/01/24 05:34:58;;;;;;;;;;;-2.50;99.90;;;;;;5009790;28;19921;-80
2023/01/24 05:37:24;;;;;;;;;;;-2.40;99.90;;;;;;5019123;28;19917;-81
2023/01/24 05:39:49;;;;;;;;;;;-2.40;99.90;;;;;;5007922;28;19964;-80
2023/01/24 05:42:15;;;;;;;;;;;-2.30;99.90;;;;;;5006964;28;19909;-81
2023/01/24 05:44:40;;;;;;;;;;;-2.40;99.90;;;;;;5010922;28;19905;-81
2023/01/24 05:47:06;;;;;;;;;;;-2.40;99.90;;;;;;5008884;28;19909;-79
2023/01/24 05:49:31;;;;;;;;;;;-2.40;99.90;;;;;;5019108;28;19916;-81
2023/01/24 05:51:57;;;;;;;;;;;-2.40;99.90;;;;;;5011222;28;19912;-82
2023/01/24 05:54:23;;;;;;;;;;;-2.40;99.90;;;;;;5012743;28;19917;-79
2023/01/24 05:56:48;;;;;;;;;;;-2.50;99.90;;;;;;5013850;28;19913;-81
2023/01/24 05:59:14;;;;;;;;;;;-2.50;99.90;;;;;;5007232;28;19991;-81
2023/01/24 06:01:39;;;;;;;;;;;-2.50;99.90;;;;;;5012377;28;19945;-82
2023/01/24 06:04:05;;;;;;;;;;;-2.50;99.90;;;;;;5021350;28;19984;-80
2023/01/24 06:06:31;;;;;;;;;;;-2.50;99.90;;;;;;5012730;28;19916;-82
2023/01/24 06:08:56;;;;;;;;;;;-2.50;99.90;;;;;;5024199;28;19915;-80
2023/01/24 06:11:23;;;;;;;;;;;-2.50;99.90;;;;;;5014530;28;19916;-81
2023/01/24 06:13:49;;;;;;;;;;;-2.30;99.90;;;;;;5014599;28;19917;-81
2023/01/24 06:16:19;;;;;;;;;;;-2.40;99.90;;;;;;5018745;28;19970;-81
2023/01/24 06:18:45;;;;;;;;;;;-2.40;99.90;;;;;;5011850;28;19913;-81
2023/01/24 06:21:18;;;;;;;;;;;-2.40;99.90;;;;;;5011835;28;19920;-82
2023/01/24 06:23:43;;;;;;;;;;;-2.40;99.90;;;;;;5009571;28;20036;-81
2023/01/24 06:26:10;;;;;;;;;;;-2.40;99.90;;;;;;5007517;28;20015;-85
2023/01/24 06:28:36;;;;;;;;;;;-2.40;99.90;;;;;;5010727;28;20108;-82
2023/01/24 06:31:16;;;;;;;;;;;-2.40;99.90;;;;;;5013192;28;20807;-85
2023/01/24 06:33:48;;;;;;;;;;;-2.40;99.90;;;;;;5013668;28;19917;-82
2023/01/24 06:36:19;;;;;;;;;;;-2.40;99.90;;;;;;5018090;28;20108;-82
2023/01/24 06:38:44;;;;;;;;;;;-2.30;99.90;;;;;;5022496;28;20000;-79
2023/01/24 06:41:14;;;;;;;;;;;-2.40;99.90;;;;;;5018037;28;19913;-82
2023/01/24 06:43:40;;;;;;;;;;;-2.50;99.90;;;;;;5005094;28;19948;-81
2023/01/24 06:46:07;;;;;;;;;;;-2.60;99.90;;;;;;5007321;28;20055;-84
2023/01/24 06:48:33;;;;;;;;;;;-2.60;99.90;;;;;;5004708;28;19921;-81
2023/01/24 06:50:59;;;;;;;;;;;-2.40;99.90;;;;;;5007368;28;19913;-81
2023/01/24 06:53:24;;;;;;;;;;;-2.40;99.90;;;;;;5014846;28;19963;-80
2023/01/24 06:55:50;;;;;;;;;;;-2.50;99.90;;;;;;5005738;28;19920;-80
2023/01/24 06:58:15;;;;;;;;;;;-2.50;99.90;;;;;;5023497;28;19909;-81
2023/01/24 07:00:41;;;;;;;;;;;-2.50;99.90;;;;;;5022965;28;19954;-81
2023/01/24 07:03:07;;;;;;;;;;;-2.50;99.90;;;;;;5014532;28;20000;-81
2023/01/24 07:05:33;;;;;;;;;;;-2.50;99.90;;;;;;5004518;28;19920;-81
2023/01/24 07:07:59;;;;;;;;;;;-2.60;99.90;;;;;;5023497;28;19971;-81
2023/01/24 07:10:25;;;;;;;;;;;-2.50;99.90;;;;;;5023367;28;19917;-81
2023/01/24 07:12:50;;;;;;;;;;;-2.60;99.90;;;;;;5023329;28;19917;-81
2023/01/24 07:15:16;;;;;;;;;;;-2.60;99.90;;;;;;5006797;28;19921;-81
2023/01/24 07:17:42;;;;;;;;;;;-2.50;99.90;;;;;;5022396;28;19909;-82
2023/01/24 07:20:09;;;;;;;;;;;-2.60;99.90;;;;;;5005745;28;19919;-84
2023/01/24 07:22:36;;;;;;;;;;;-2.50;99.90;;;;;;5023429;28;19920;-78
2023/01/24 07:25:02;;;;;;;;;;;-2.40;99.90;;;;;;5023467;28;19917;-78
2023/01/24 07:27:27;;;;;;;;;;;-2.50;99.90;;;;;;5005481;28;20694;-77
2023/01/24 07:29:53;;;;;;;;;;;-2.50;99.90;;;;;;5021142;28;19979;-79
2023/01/24 07:32:18;;;;;;;;;;;-2.50;99.90;;;;;;5019570;28;19950;-78
2023/01/24 07:34:44;;;;;;;;;;;-2.40;99.90;;;;;;5010657;28;19956;-76
2023/01/24 07:37:10;;;;;;;;;;;-2.40;99.90;;;;;;5014803;28;19959;-77
2023/01/24 07:39:35;;;;;;;;;;;-2.40;99.90;;;;;;5005578;28;19909;-78
2023/01/24 07:42:01;;;;;;;;;;;-2.40;99.90;;;;;;5006488;28;20029;-77
2023/01/24 07:44:27;;;;;;;;;;;-2.40;99.90;;;;;;5003669;28;20395;-79
2023/01/24 07:46:52;;;;;;;;;;;-2.30;99.90;;;;;;5006762;28;19909;-77
2023/01/24 07:49:18;;;;;;;;;;;-2.20;99.90;;;;;;5013399;28;19917;-79
2023/01/24 07:51:45;;;;;;;;;;;-1.90;99.90;;;;;;5007412;28;19913;-77
2023/01/24 07:54:11;;;;;;;;;;;-1.10;99.90;;;;;;5007026;28;20750;-77
2023/01/24 07:56:36;;;;;;;;;;;-0.50;99.90;;;;;;5003967;28;19987;-78
2023/01/24 07:59:02;;;;;;;;;;;-0.40;99.90;;;;;;5019269;28;19932;-76
2023/01/24 08:01:28;;;;;;;;;;;-0.20;99.90;;;;;;5014316;28;19909;-77
2023/01/24 08:03:55;;;;;;;;;;;0.00;99.90;;;;;;5003205;28;20022;-77
2023/01/24 08:06:20;;;;;;;;;;;0.10;99.90;;;;;;5012898;28;20364;-77
2023/01/24 08:08:46;;;;;;;;;;;0.10;99.90;;;;;;5017353;28;19909;-78
2023/01/24 08:11:15;;;;;;;;;;;0.40;99.90;;;;;;5012015;28;19967;-77
2023/01/24 08:13:41;;;;;;;;;;;0.70;99.90;;;;;;5011964;28;20702;-77
2023/01/24 08:16:07;;;;;;;;;;;0.50;99.90;;;;;;5009562;28;19920;-77
2023/01/24 08:18:32;;;;;;;;;;;0.70;99.90;;;;;;5013179;28;20028;-77
2023/01/24 08:20:58;;;;;;;;;;;1.00;99.90;;;;;;5011917;28;19913;-78
2023/01/24 08:23:23;;;;;;;;;;;1.10;99.90;;;;;;5008587;28;19920;-79
2023/01/24 08:25:49;;;;;;;;;;;1.30;99.90;;;;;;5013870;28;19913;-78
2023/01/24 08:28:15;;;;;;;;;;;1.50;99.50;;;;;;5018362;28;20458;-77
2023/01/24 08:30:40;;;;;;;;;;;1.50;99.50;;;;;;5010795;28;20654;-78
2023/01/24 08:33:06;;;;;;;;;;;1.60;99.00;;;;;;5009472;28;19917;-78
2023/01/24 08:35:32;;;;;;;;;;;1.70;99.20;;;;;;5004044;28;19966;-77
2023/01/24 08:37:58;;;;;;;;;;;1.90;99.20;;;;;;5003975;28;19971;-79
2023/01/24 08:40:24;;;;;;;;;;;1.90;99.10;;;;;;5020493;28;20651;-78
2023/01/24 08:42:49;;;;;;;;;;;2.00;98.80;;;;;;5010947;28;19909;-78
2023/01/24 08:45:15;;;;;;;;;;;2.30;98.40;;;;;;5003398;28;19909;-78
2023/01/24 08:47:40;;;;;;;;;;;2.30;98.20;;;;;;5006218;28;19913;-77
2023/01/24 08:50:06;;;;;;;;;;;2.50;97.80;;;;;;5017292;28;19909;-80
2023/01/24 08:52:32;;;;;;;;;;;2.80;97.00;;;;;;5009791;28;19909;-77
2023/01/24 08:54:58;;;;;;;;;;;2.70;97.20;;;;;;5004768;28;19913;-77
2023/01/24 08:57:23;;;;;;;;;;;2.80;96.80;;;;;;5010996;28;19916;-78
2023/01/24 08:59:49;;;;;;;;;;;3.10;96.70;;;;;;5009688;28;20407;-78
2023/01/24 09:02:16;;;;;;;;;;;2.80;96.10;;;;;;5014321;28;19909;-77
2023/01/24 09:04:42;;;;;;;;;;;2.60;96.80;;;;;;5011324;28;19963;-77
2023/01/24 09:07:08;;;;;;;;;;;2.80;97.30;;;;;;5013428;28;20453;-77
2023/01/24 09:09:33;;;;;;;;;;;2.90;97.00;;;;;;5005594;28;20292;-77
2023/01/24 09:11:59;;;;;;;;;;;3.00;97.40;;;;;;5009940;28;19910;-77
2023/01/24 09:14:25;;;;;;;;;;;3.10;97.90;;;;;;5010454;28;19920;-77
2023/01/24 09:16:50;;;;;;;;;;;3.10;97.70;;;;;;5007780;28;19920;-77
2023/01/24 09:19:16;;;;;;;;;;;3.20;97.60;;;;;;5010010;28;19913;-77
2023/01/24 09:21:43;;;;;;;;;;;3.40;97.60;;;;;;5014071;28;19974;-77
2023/01/24 09:24:09;;;;;;;;;;;3.20;97.80;;;;;;5003647;28;20667;-76
2023/01/24 09:26:34;;;;;;;;;;;3.50;97.90;;;;;;4994284;28;19918;-77
2023/01/24 09:29:00;;;;;;;;;;;3.40;97.00;;;;;;5013975;28;19996;-77
2023/01/24 09:31:26;;;;;;;;;;;3.40;97.70;;;;;;5011953;28;19909;-77
2023/01/24 09:33:51;;;;;;;;;;;3.80;97.40;;;;;;5013841;28;20008;-77
2023/01/24 09:36:17;;;;;;;;;;;4.00;97.00;;;;;;5008300;28;20522;-78
2023/01/24 09:38:42;;;;;;;;;;;4.10;96.80;;;;;;5013480;28;19913;-77
2023/01/24 09:41:11;;;;;;;;;;;4.10;96.80;;;;;;5012775;28;19916;-79
2023/01/24 09:43:36;;;;;;;;;;;4.00;96.30;;;;;;5006428;28;19916;-77
2023/01/24 09:46:05;;;;;;;;;;;3.90;96.60;;;;;;5009556;28;19913;-77
2023/01/24 09:48:34;;;;;;;;;;;4.00;97.20;;;;;;5009141;28;19935;-77
2023/01/24 09:51:01;;;;;;;;;;;4.30;96.30;;;;;;5009291;28;19913;-78
2023/01/24 09:53:30;;;;;;;;;;;4.10;95.30;;;;;;5015062;28;19947;-77
2023/01/24 09:55:57;;;;;;;;;;;3.70;97.40;;;;;;5010034;28;20304;-77
2023/01/24 09:58:33;;;;;;;;;;;3.80;97.30;;;;;;5014528;28;19913;-79
2023/01/24 10:00:59;;;;;;;;;;;4.30;97.00;;;;;;5020227;28;20612;-79
2023/01/24 10:03:25;;;;;;;;;;;4.10;96.20;;;;;;5005967;28;19909;-78
2023/01/24 10:05:56;;;;;;;;;;;4.50;96.70;;;;;;5016606;28;19955;-77
2023/01/24 10:08:27;;;;;;;;;;;4.80;95.80;;;;;;5018688;28;19908;-78
2023/01/24 10:10:52;;;;;;;;;;;4.70;96.00;;;;;;5011907;28;19914;-78
2023/01/24 10:13:18;;;;;;;;;;;4.40;96.20;;;;;;5006014;28;19983;-78
2023/01/24 10:15:55;;;;;;;;;;;4.40;96.50;;;;;;5018501;28;19993;-78
2023/01/24 10:18:27;;;;;;;;;;;4.20;96.60;;;;;;5017239;28;19909;-77
2023/01/24 10:21:11;;;;;;;;;;;4.10;97.70;;;;;;5014415;28;20060;-77
2023/01/24 10:23:40;;;;;;;;;;;4.10;96.90;;;;;;5006336;28;19925;-78
2023/01/24 10:26:26;;;;;;;;;;;4.30;96.80;;;;;;5014381;28;19905;-77
2023/01/24 10:28:53;;;;;;;;;;;4.50;96.00;;;;;;5016864;28;20617;-77
2023/01/24 10:31:27;;;;;;;;;;;4.40;96.70;;;;;;5014341;28;19932;-77
2023/01/24 10:33:57;;;;;;;;;;;4.90;96.50;;;;;;5006372;28;19927;-78
2023/01/24 10:36:25;;;;;;;;;;;4.50;94.40;;;;;;5008192;28;19944;-77
2023/01/24 10:38:51;;;;;;;;;;;4.30;96.40;;;;;;5011814;28;19916;-78
2023/01/24 10:41:18;;;;;;;;;;;4.60;97.00;;;;;;5011215;28;19909;-77
2023/01/24 10:43:45;;;;;;;;;;;4.30;96.50;;;;;;5007235;28;19910;-77
2023/01/24 10:46:11;;;;;;;;;;;4.50;96.80;;;;;;5008429;28;19919;-77
2023/01/24 10:48:42;;;;;;;;;;;4.60;95.80;;;;;;5008173;28;19909;-78
2023/01/24 10:51:12;;;;;;;;;;;4.60;95.80;;;;;;5012405;28;20720;-78
2023/01/24 10:53:38;;;;;;;;;;;4.30;93.80;;;;;;5004567;28;19957;-79
2023/01/24 10:56:04;;;;;;;;;;;4.20;96.50;;;;;;5012769;28;20008;-77
2023/01/24 10:58:33;;;;;;;;;;;4.30;96.70;;;;;;5009180;28;19996;-78
2023/01/24 11:01:03;;;;;;;;;;;4.10;94.90;;;;;;5020512;28;20031;-77
2023/01/24 11:03:30;;;;;;;;;;;4.50;96.20;;;;;;5010952;28;20635;-77
2023/01/24 11:05:57;;;;;;;;;;;4.70;96.00;;;;;;5011042;28;19916;-78
2023/01/24 11:08:22;;;;;;;;;;;4.80;95.10;;;;;;5010961;28;20001;-77
2023/01/24 11:10:54;;;;;;;;;;;4.60;95.10;;;;;;5011048;28;19999;-77
2023/01/24 11:13:25;;;;;;;;;;;4.60;96.20;;;;;;4993755;28;19995;-77
2023/01/24 11:15:53;;;;;;;;;;;4.60;96.30;;;;;;5017200;28;20443;-78
2023/01/24 11:18:24;;;;;;;;;;;4.70;96.20;;;;;;5014702;28;19909;-78
2023/01/24 11:21:08;;;;;;;;;;;4.60;95.50;;;;;;5000030;28;19920;-76
2023/01/24 11:23:33;;;;;;;;;;;4.40;95.90;;;;;;5018207;28;19921;-77
2023/01/24 11:26:04;;;;;;;;;;;4.80;96.10;;;;;;5007586;28;19968;-78
2023/01/24 11:28:31;;;;;;;;;;;4.90;95.80;;;;;;5019931;28;19914;-77
2023/01/24 11:31:00;;;;;;;;;;;4.60;95.20;;;;;;5009292;28;19975;-77
2023/01/24 11:33:25;;;;;;;;;;;4.80;96.70;;;;;;5018250;28;19920;-78
2023/01/24 11:36:11;;;;;;;;;;;4.90;95.70;;;;;;5005217;28;19913;-77
2023/01/24 11:38:40;;;;;;;;;;;4.80;96.40;;;;;;5005293;28;20435;-77
2023/01/24 11:41:05;;;;;;;;;;;4.50;94.10;;;;;;5007133;28;19944;-77
2023/01/24 11:43:35;;;;;;;;;;;4.50;94.00;;;;;;5006654;28;20285;-76
2023/01/24 11:46:21;;;;;;;;;;;4.90;95.40;;;;;;5007461;28;19909;-78
2023/01/24 11:48:58;;;;;;;;;;;5.10;95.90;;;;;;5006721;28;19916;-78
2023/01/24 11:51:44;;;;;;;;;;;5.40;96.00;;;;;;5007313;28;20109;-78
2023/01/24 11:54:16;;;;;;;;;;;5.50;93.30;;;;;;5007081;28;19920;-77
2023/01/24 11:56:49;;;;;;;;;;;5.70;95.00;;;;;;5003850;28;19959;-78
2023/01/24 11:59:17;;;;;;;;;;;5.90;94.40;;;;;;5007564;28;19928;-78
2023/01/24 12:02:01;;;;;;;;;;;5.70;94.10;;;;;;5014044;28;19909;-77
2023/01/24 12:04:36;;;;;;;;;;;5.70;94.80;;;;;;5008375;28;19909;-78
2023/01/24 12:07:04;;;;;;;;;;;5.70;95.60;;;;;;5005979;28;19916;-77
2023/01/24 12:09:34;;;;;;;;;;;5.60;91.90;;;;;;5018012;28;19909;-78
2023/01/24 12:12:00;;;;;;;;;;;5.90;93.40;;;;;;5003401;28;19909;-77
2023/01/24 12:14:43;;;;;;;;;;;5.60;92.00;;;;;;5009732;28;19920;-78
2023/01/24 12:17:18;;;;;;;;;;;5.70;92.80;;;;;;5015846;28;19956;-78
2023/01/24 12:20:03;;;;;;;;;;;5.90;93.60;;;;;;5014992;28;19913;-78
2023/01/24 12:22:29;;;;;;;;;;;5.50;92.10;;;;;;4986111;28;19918;-77
2023/01/24 12:25:01;;;;;;;;;;;5.50;93.20;;;;;;5013931;28;19915;-78
2023/01/24 12:27:29;;;;;;;;;;;5.40;93.20;;;;;;5022768;28;19916;-77
2023/01/24 12:30:01;;;;;;;;;;;5.40;92.50;;;;;;5021152;28;19909;-78
2023/01/24 12:32:48;;;;;;;;;;;5.20;92.10;;;;;;5021691;28;19909;-78
2023/01/24 12:35:26;;;;;;;;;;;5.20;92.40;;;;;;5005770;28;19917;-78
2023/01/24 12:37:59;;;;;;;;;;;5.10;92.60;;;;;;5015717;28;19956;-78
2023/01/24 12:40:46;;;;;;;;;;;5.30;94.30;;;;;;5005053;28;20291;-79
2023/01/24 12:43:30;;;;;;;;;;;5.20;91.60;;;;;;5008268;28;19959;-77
2023/01/24 12:45:56;;;;;;;;;;;5.20;91.70;;;;;;5009467;28;19916;-78
2023/01/24 12:48:24;;;;;;;;;;;4.90;91.00;;;;;;5008598;28;19909;-80
2023/01/24 12:50:50;;;;;;;;;;;4.80;91.20;;;;;;5012345;28;20239;-79
2023/01/24 12:53:19;;;;;;;;;;;4.80;91.20;;;;;;5007120;28;20356;-78
2023/01/24 12:55:57;;;;;;;;;;;4.90;91.30;;;;;;5009481;28;20012;-77
2023/01/24 12:58:26;;;;;;;;;;;4.60;90.70;;;;;;5003523;28;19913;-77
2023/01/24 13:00:51;;;;;;;;;;;4.80;93.30;;;;;;4990434;28;19928;-77
2023/01/24 13:03:32;;;;;;;;;;;4.70;92.80;;;;;;5004512;28;20332;-79
2023/01/24 13:06:00;;;;;;;;;;;4.60;93.10;;;;;;5015088;28;19952;-78
2023/01/24 13:08:32;;;;;;;;;;;4.70;93.90;;;;;;5003153;28;20004;-78
2023/01/24 13:11:16;;;;;;;;;;;4.60;92.30;;;;;;5019111;28;19909;-79
2023/01/24 13:13:44;;;;;;;;;;;4.50;92.30;;;;;;5017429;28;19913;-77
2023/01/24 13:16:35;;;;;;;;;;;4.30;90.80;;;;;;5017534;28;19913;-77
2023/01/24 13:19:05;;;;;;;;;;;4.30;91.60;;;;;;5006616;28;20057;-78
2023/01/24 13:21:51;;;;;;;;;;;4.20;90.00;;;;;;5016579;28;20396;-77
2023/01/24 13:24:36;;;;;;;;;;;4.20;90.80;;;;;;5019339;28;19913;-77
2023/01/24 13:27:11;;;;;;;;;;;4.20;91.40;;;;;;5014541;28;19952;-77
2023/01/24 13:29:55;;;;;;;;;;;4.40;92.40;;;;;;4995686;28;19960;-78
2023/01/24 13:32:21;;;;;;;;;;;4.20;91.10;;;;;;5022657;28;19916;-77
2023/01/24 13:34:49;;;;;;;;;;;4.40;91.70;;;;;;5011732;28;19920;-77
2023/01/24 13:37:33;;;;;;;;;;;4.40;91.40;;;;;;5007813;28;20004;-77
2023/01/24 13:40:00;;;;;;;;;;;4.40;91.70;;;;;;5009940;28;19921;-78
2023/01/24 13:42:37;;;;;;;;;;;4.50;92.00;;;;;;5006728;28;19971;-77
2023/01/24 13:45:21;;;;;;;;;;;4.50;91.80;;;;;;5009929;28;19909;-77
2023/01/24 13:47:47;;;;;;;;;;;4.40;91.70;;;;;;5012741;28;19971;-78
2023/01/24 13:50:13;;;;;;;;;;;4.30;90.70;;;;;;5009970;28;19917;-77
2023/01/24 13:52:44;;;;;;;;;;;4.20;90.20;;;;;;5013518;28;19909;-77
2023/01/24 13:55:22;;;;;;;;;;;4.40;91.60;;;;;;5010955;28;19920;-78
2023/01/24 13:57:57;;;;;;;;;;;4.40;91.60;;;;;;5016476;28;19931;-78
2023/01/24 14:00:24;;;;;;;;;;;4.40;91.30;;;;;;4993830;28;20665;-77
2023/01/24 14:02:50;;;;;;;;;;;4.30;91.40;;;;;;5013328;28;20483;-78
2023/01/24 14:05:28;;;;;;;;;;;4.40;91.60;;;;;;5006361;28;19909;-77
2023/01/24 14:07:55;;;;;;;;;;;4.40;91.10;;;;;;5009308;28;19980;-77
2023/01/24 14:10:31;;;;;;;;;;;4.30;90.20;;;;;;5008700;28;20364;-77
2023/01/24 14:12:57;;;;;;;;;;;4.40;89.30;;;;;;5014747;28;19919;-77
2023/01/24 14:15:29;;;;;;;;;;;4.60;90.80;;;;;;5010131;28;19917;-77
2023/01/24 14:17:55;;;;;;;;;;;4.90;89.70;;;;;;5015541;28;19948;-78
2023/01/24 14:20:21;;;;;;;;;;;4.90;89.60;;;;;;5013290;28;19913;-78
2023/01/24 14:22:47;;;;;;;;;;;5.00;90.20;;;;;;5005428;28;20467;-78
2023/01/24 14:25:34;;;;;;;;;;;4.90;89.40;;;;;;5014108;28;19905;-77
2023/01/24 14:28:01;;;;;;;;;;;4.80;89.30;;;;;;5020737;28;20587;-78
2023/01/24 14:30:31;;;;;;;;;;;4.80;86.50;;;;;;5006806;28;19909;-78
2023/01/24 14:33:20;;;;;;;;;;;4.90;87.10;;;;;;5011543;28;19913;-77
2023/01/24 14:35:58;;;;;;;;;;;4.90;87.30;;;;;;4995865;28;19917;-77
2023/01/24 14:38:23;;;;;;;;;;;4.80;89.10;;;;;;5006751;28;19917;-79
2023/01/24 14:40:50;;;;;;;;;;;5.00;89.20;;;;;;5017485;28;19963;-78
2023/01/24 14:43:16;;;;;;;;;;;5.20;90.00;;;;;;5019366;28;20215;-77
2023/01/24 14:45:42;;;;;;;;;;;5.30;90.30;;;;;;5021474;28;20407;-78
2023/01/24 14:48:19;;;;;;;;;;;5.30;89.70;;;;;;5010473;28;19951;-77
2023/01/24 14:50:54;;;;;;;;;;;5.30;90.10;;;;;;5013769;28;19990;-78
2023/01/24 14:53:28;;;;;;;;;;;5.10;90.50;;;;;;5010375;28;19913;-78
2023/01/24 14:55:54;;;;;;;;;;;4.80;90.00;;;;;;5010731;28;20063;-79
2023/01/24 14:58:27;;;;;;;;;;;4.70;88.60;;;;;;5012052;28;19951;-77
2023/01/24 15:00:54;;;;;;;;;;;4.60;88.60;;;;;;5021698;28;20108;-77
2023/01/24 15:03:24;;;;;;;;;;;4.70;89.60;;;;;;5005759;28;19910;-78
2023/01/24 15:05:57;;;;;;;;;;;4.60;90.00;;;;;;5011333;28;19964;-77
2023/01/24 15:08:24;;;;;;;;;;;4.70;90.30;;;;;;4995133;28;19913;-79